createdAt,value
2019-02-08T00:01:38.071Z,100588.95
2019-02-08T00:04:05.825Z,100582.35
2019-02-08T00:06:33.658Z,100591.31
2019-02-08T00:09:01.711Z,100585.01
2019-02-08T00:11:29.571Z,100581.62
2019-02-08T00:13:57.380Z,100578.63
2019-02-08T00:16:28.776Z,100583.80
2019-02-08T00:18:56.514Z,100588.06
2019-02-08T00:21:24.292Z,100586.48
2019-02-08T00:23:52.109Z,100595.47
2019-02-08T00:26:19.858Z,100596.11
2019-02-08T00:28:47.886Z,100593.05
2019-02-08T00:31:15.825Z,100588.09
2019-02-08T00:33:43.932Z,100590.02
2019-02-08T00:36:11.691Z,100598.01
2019-02-08T00:38:39.511Z,100608.48
2019-02-08T00:41:07.684Z,100604.89
2019-02-08T00:43:35.437Z,100608.07
2019-02-08T00:46:03.220Z,100617.38
2019-02-08T00:48:31.044Z,100613.65
2019-02-08T00:50:59.361Z,100612.63
2019-02-08T00:53:33.396Z,100602.11
2019-02-08T00:55:56.669Z,100617.84
2019-02-08T00:58:24.446Z,100623.44
2019-02-08T01:00:52.273Z,100619.63
2019-02-08T01:03:20.028Z,100623.38
2019-02-08T01:05:48.083Z,100624.66
2019-02-08T01:08:15.901Z,100628.79
2019-02-08T01:10:43.844Z,100633.45
2019-02-08T01:13:11.673Z,100627.34
2019-02-08T01:15:39.436Z,100635.70
2019-02-08T01:18:07.230Z,100634.02
2019-02-08T01:20:35.115Z,100639.45
2019-02-08T01:23:02.916Z,100638.47
2019-02-08T01:25:30.766Z,100637.47
2019-02-08T01:27:58.505Z,100639.81
2019-02-08T01:30:27.245Z,100639.88
2019-02-08T01:32:55.060Z,100627.47
2019-02-08T01:35:23.169Z,100640.78
2019-02-08T01:37:50.998Z,100646.06
2019-02-08T01:40:19.811Z,100645.70
2019-02-08T01:42:47.644Z,100647.61
2019-02-08T01:45:16.659Z,100650.40
2019-02-08T01:47:44.409Z,100651.67
2019-02-08T01:50:13.713Z,100653.52
2019-02-08T01:52:41.518Z,100654.73
2019-02-08T01:55:09.324Z,100647.99
2019-02-08T01:57:37.227Z,100653.71
2019-02-08T02:00:06.421Z,100650.02
2019-02-08T02:02:34.169Z,100650.84
2019-02-08T02:05:03.414Z,100652.05
2019-02-08T02:07:31.165Z,100650.09
2019-02-08T02:10:00.052Z,100645.63
2019-02-08T02:12:27.903Z,100649.18
2019-02-08T02:14:55.641Z,100653.20
2019-02-08T02:17:23.388Z,100654.48
2019-02-08T02:19:51.206Z,100659.00
2019-02-08T02:22:18.963Z,100653.73
2019-02-08T02:24:47.108Z,100656.27
2019-02-08T02:27:14.855Z,100656.89
2019-02-08T02:29:42.626Z,100653.34
2019-02-08T02:32:10.386Z,100633.79
2019-02-08T02:34:38.306Z,100655.32
2019-02-08T02:37:06.062Z,100637.22
2019-02-08T02:39:33.931Z,100657.91
2019-02-08T02:42:01.751Z,100649.50
2019-02-08T02:44:29.496Z,100662.90
2019-02-08T02:46:57.314Z,100656.20
2019-02-08T02:49:25.131Z,100656.33
2019-02-08T02:51:53.075Z,100668.69
2019-02-08T02:54:20.830Z,100665.77
2019-02-08T02:56:48.576Z,100674.73
2019-02-08T02:59:16.332Z,100667.05
2019-02-08T03:01:44.099Z,100672.55
2019-02-08T03:04:11.921Z,100680.23
2019-02-08T03:06:39.653Z,100685.66
2019-02-08T03:09:08.705Z,100670.61
2019-02-08T03:11:36.456Z,100681.83
2019-02-08T03:14:04.295Z,100691.27
2019-02-08T03:16:32.076Z,100688.45
2019-02-08T03:18:59.816Z,100685.78
2019-02-08T03:21:27.645Z,100694.44
2019-02-08T03:23:55.435Z,100637.58
2019-02-08T03:26:23.256Z,100681.58
2019-02-08T03:28:51.042Z,100687.04
2019-02-08T03:31:18.849Z,100690.69
2019-02-08T03:33:47.961Z,100691.64
2019-02-08T03:36:15.739Z,100686.80
2019-02-08T03:38:43.676Z,100690.87
2019-02-08T03:41:11.425Z,100685.07
2019-02-08T03:43:39.173Z,100693.92
2019-02-08T03:46:07.054Z,100692.14
2019-02-08T03:48:35.120Z,100704.65
2019-02-08T03:51:02.895Z,100702.92
2019-02-08T03:53:30.639Z,100702.30
2019-02-08T03:55:59.013Z,100705.84
2019-02-08T03:58:26.897Z,100711.84
2019-02-08T04:01:00.464Z,100714.91
2019-02-08T04:03:28.209Z,100722.24
2019-02-08T04:05:55.963Z,100724.13
2019-02-08T04:08:23.693Z,100720.30
2019-02-08T04:10:51.614Z,100724.00
2019-02-08T04:13:19.344Z,100726.61
2019-02-08T04:15:48.109Z,100723.81
2019-02-08T04:18:15.985Z,100718.97
2019-02-08T04:20:43.813Z,100723.24
2019-02-08T04:23:11.586Z,100726.55
2019-02-08T04:25:39.356Z,100730.12
2019-02-08T04:28:07.169Z,100726.62
2019-02-08T04:30:35.102Z,100725.14
2019-02-08T04:33:02.952Z,100728.92
2019-02-08T04:35:30.743Z,100731.72
2019-02-08T04:37:58.667Z,100734.51
2019-02-08T04:40:26.508Z,100722.93
2019-02-08T04:42:54.260Z,100730.08
2019-02-08T04:45:22.180Z,100730.02
2019-02-08T04:47:50.308Z,100708.00
2019-02-08T04:50:18.917Z,100733.52
2019-02-08T04:52:46.740Z,100732.55
2019-02-08T04:55:14.494Z,100732.16
2019-02-08T04:57:42.240Z,100732.95
2019-02-08T05:00:11.679Z,100737.41
2019-02-08T05:02:39.524Z,100736.77
2019-02-08T05:05:07.289Z,100732.67
2019-02-08T05:07:35.049Z,100747.22
2019-02-08T05:10:02.936Z,100742.77
2019-02-08T05:12:30.688Z,100743.83
2019-02-08T05:14:58.529Z,100739.25
2019-02-08T05:17:26.322Z,100741.42
2019-02-08T05:19:54.225Z,100735.95
2019-02-08T05:22:22.020Z,100739.69
2019-02-08T05:24:49.858Z,100737.64
2019-02-08T05:27:17.977Z,100736.30
2019-02-08T05:29:45.733Z,100733.56
2019-02-08T05:32:13.785Z,100735.67
2019-02-08T05:34:41.598Z,100734.91
2019-02-08T05:37:09.657Z,100739.24
2019-02-08T05:39:37.524Z,100738.30
2019-02-08T05:42:05.446Z,100739.69
2019-02-08T05:44:33.200Z,100729.31
2019-02-08T05:47:00.965Z,100730.32
2019-02-08T05:49:28.746Z,100732.11
2019-02-08T05:51:56.467Z,100733.13
2019-02-08T05:54:24.309Z,100729.61
2019-02-08T05:56:52.101Z,100733.52
2019-02-08T05:59:19.995Z,100732.61
2019-02-08T06:01:47.742Z,100722.36
2019-02-08T06:04:15.712Z,100731.41
2019-02-08T06:06:43.521Z,100728.66
2019-02-08T06:09:11.259Z,100706.46
2019-02-08T06:11:39.109Z,100718.53
2019-02-08T06:14:06.956Z,100722.77
2019-02-08T06:16:34.778Z,100727.05
2019-02-08T06:19:02.524Z,100729.89
2019-02-08T06:21:30.281Z,100739.69
2019-02-08T06:23:58.126Z,100734.91
2019-02-08T06:26:25.903Z,100741.93
2019-02-08T06:28:53.655Z,100739.75
2019-02-08T06:31:21.420Z,100743.48
2019-02-08T06:33:49.264Z,100735.69
2019-02-08T06:36:17.050Z,100741.42
2019-02-08T06:38:44.789Z,100749.34
2019-02-08T06:41:12.636Z,100744.27
2019-02-08T06:43:40.545Z,100748.73
2019-02-08T06:46:08.361Z,100749.96
2019-02-08T06:48:36.100Z,100748.67
2019-02-08T06:51:04.212Z,100751.53
2019-02-08T06:53:32.032Z,100756.25
2019-02-08T06:55:59.778Z,100752.08
2019-02-08T06:58:41.178Z,100754.41
2019-02-08T07:01:22.400Z,100752.19
2019-02-08T07:04:21.575Z,100760.78
2019-02-08T07:07:14.631Z,100755.77
2019-02-08T07:10:04.281Z,100759.77
2019-02-08T07:12:51.133Z,100754.69
2019-02-08T07:15:44.166Z,100757.44
2019-02-08T07:18:23.564Z,100758.43
2019-02-08T07:21:28.405Z,100740.25
2019-02-08T07:24:21.214Z,100753.97
2019-02-08T07:27:04.564Z,100760.72
2019-02-08T07:29:51.418Z,100720.86
2019-02-08T07:32:37.093Z,100758.87
2019-02-08T07:35:22.809Z,100752.06
2019-02-08T07:38:08.539Z,100762.27
2019-02-08T07:40:56.480Z,100755.63
2019-02-08T07:44:01.517Z,100756.39
2019-02-08T07:47:00.633Z,100761.55
2019-02-08T07:49:36.962Z,100764.46
2019-02-08T07:52:29.925Z,100760.72
2019-02-08T07:55:12.392Z,100758.32
2019-02-08T07:58:02.453Z,100760.41
2019-02-08T08:00:58.893Z,100766.13
2019-02-08T08:03:50.179Z,100772.14
2019-02-08T08:06:35.786Z,100741.46
2019-02-08T08:09:18.373Z,100761.23
2019-02-08T08:12:00.812Z,100767.81
2019-02-08T08:14:45.690Z,100771.61
2019-02-08T08:17:31.465Z,100769.87
2019-02-08T08:20:17.496Z,100766.52
2019-02-08T08:23:03.986Z,100769.20
2019-02-08T08:25:57.020Z,100762.78
2019-02-08T08:28:42.555Z,100770.16
2019-02-08T08:31:14.868Z,100767.80
2019-02-08T08:33:45.350Z,100766.45
2019-02-08T08:36:30.098Z,100766.25
2019-02-08T08:39:05.898Z,100767.80
2019-02-08T08:41:43.024Z,100764.87
2019-02-08T08:44:19.535Z,100761.19
2019-02-08T08:47:06.915Z,100764.70
2019-02-08T08:50:03.464Z,100761.02
2019-02-08T08:52:50.552Z,100760.85
2019-02-08T08:55:42.249Z,100754.98
2019-02-08T08:58:14.900Z,100749.88
2019-02-08T09:00:50.216Z,100748.20
2019-02-08T09:03:23.614Z,100748.81
2019-02-08T09:06:16.934Z,100747.47
2019-02-08T09:09:05.146Z,100747.02
2019-02-08T09:11:46.438Z,100743.19
2019-02-08T09:14:36.350Z,100742.78
2019-02-08T09:17:29.424Z,100745.25
2019-02-08T09:20:05.145Z,100746.03
2019-02-08T09:22:39.209Z,100744.91
2019-02-08T09:25:19.761Z,100739.59
2019-02-08T09:28:06.924Z,100746.13
2019-02-08T09:30:45.247Z,100738.77
2019-02-08T09:33:23.711Z,100742.80
2019-02-08T09:36:22.828Z,100739.67
2019-02-08T09:39:08.444Z,100740.84
2019-02-08T09:41:54.426Z,100741.56
2019-02-08T09:44:41.461Z,100738.83
2019-02-08T09:47:27.108Z,100722.23
2019-02-08T09:50:13.206Z,100740.27
2019-02-08T09:52:59.634Z,100742.08
2019-02-08T09:55:40.788Z,100738.27
2019-02-08T09:58:28.303Z,100743.34
2019-02-08T10:01:14.091Z,100741.52
2019-02-08T10:03:51.300Z,100744.08
2019-02-08T10:06:38.350Z,100741.28
2019-02-08T10:09:31.452Z,100748.20
2019-02-08T10:12:15.204Z,100745.97
2019-02-08T10:14:48.565Z,100739.28
2019-02-08T10:17:26.494Z,100745.41
2019-02-08T10:20:13.644Z,100748.54
2019-02-08T10:22:58.557Z,100751.70
2019-02-08T10:25:54.829Z,100740.73
2019-02-08T10:28:33.419Z,100744.57
2019-02-08T10:31:19.342Z,100744.47
2019-02-08T10:34:11.644Z,100737.64
2019-02-08T10:36:47.814Z,100733.75
2019-02-08T10:39:27.584Z,100720.86
2019-02-08T10:42:09.157Z,100729.56
2019-02-08T10:44:46.350Z,100732.34
2019-02-08T10:47:32.427Z,100733.42
2019-02-08T10:50:28.664Z,100732.98
2019-02-08T10:53:04.751Z,100706.73
2019-02-08T10:56:14.880Z,100724.98
2019-02-08T10:58:57.908Z,100715.68
2019-02-08T11:01:45.080Z,100722.48
2019-02-08T11:04:24.664Z,100715.09
2019-02-08T11:07:28.037Z,100720.86
2019-02-08T11:10:21.554Z,100716.30
2019-02-08T11:13:11.125Z,100695.91
2019-02-08T11:15:52.800Z,100705.14
2019-02-08T11:18:38.750Z,100705.80
2019-02-08T11:21:06.517Z,100704.45
2019-02-08T11:23:34.270Z,100699.53
2019-02-08T11:26:02.029Z,100703.12
2019-02-08T11:28:29.811Z,100701.89
2019-02-08T11:30:57.659Z,100695.28
2019-02-08T11:33:25.438Z,100693.02
2019-02-08T11:35:53.297Z,100690.57
2019-02-08T11:38:21.062Z,100684.50
2019-02-08T11:40:52.287Z,100686.86
2019-02-08T11:43:20.029Z,100681.20
2019-02-08T11:45:52.261Z,100672.52
2019-02-08T11:48:20.612Z,100673.53
2019-02-08T11:50:48.396Z,100671.69
2019-02-08T11:53:16.217Z,100662.33
2019-02-08T11:55:44.007Z,100650.02
2019-02-08T11:58:11.786Z,100670.50
2019-02-08T12:00:44.125Z,100655.25
2019-02-08T12:03:11.873Z,100653.21
2019-02-08T12:05:39.877Z,100659.58
2019-02-08T12:08:07.623Z,100648.38
2019-02-08T12:10:35.411Z,100625.86
2019-02-08T12:13:03.147Z,100647.86
2019-02-08T12:15:30.974Z,100645.31
2019-02-08T12:17:58.901Z,100641.28
2019-02-08T12:20:26.650Z,100636.77
2019-02-08T12:22:54.436Z,100641.94
2019-02-08T12:25:22.194Z,100634.72
2019-02-08T12:27:49.951Z,100635.68
2019-02-08T12:30:19.899Z,100630.01
2019-02-08T12:32:47.642Z,100627.40
2019-02-08T12:35:15.445Z,100630.91
2019-02-08T12:37:43.209Z,100623.95
2019-02-08T12:40:10.949Z,100619.82
2019-02-08T12:42:38.722Z,100612.67
2019-02-08T12:45:08.277Z,100609.48
2019-02-08T12:47:36.045Z,100608.23
2019-02-08T12:50:04.280Z,100601.77
2019-02-08T12:52:32.056Z,100602.95
2019-02-08T12:54:59.805Z,100601.84
2019-02-08T12:57:27.540Z,100596.05
2019-02-08T12:59:55.281Z,100595.47
2019-02-08T13:02:23.267Z,100588.98
2019-02-08T13:04:51.100Z,100590.00
2019-02-08T13:07:18.848Z,100588.34
2019-02-08T13:09:46.600Z,100583.75
2019-02-08T13:12:14.558Z,100572.56
2019-02-08T13:14:42.489Z,100568.73
2019-02-08T13:17:10.252Z,100567.51
2019-02-08T13:19:38.005Z,100566.76
2019-02-08T13:22:05.752Z,100563.56
2019-02-08T13:24:33.569Z,100552.14
2019-02-08T13:27:01.360Z,100551.40
2019-02-08T13:29:31.520Z,100544.19
2019-02-08T13:31:59.270Z,100538.26
2019-02-08T13:34:34.316Z,100541.10
2019-02-08T13:37:04.569Z,100536.56
2019-02-08T13:39:36.814Z,100531.73
2019-02-08T13:42:27.292Z,100525.92
2019-02-08T13:44:55.367Z,100524.35
2019-02-08T13:47:23.194Z,100516.10
2019-02-08T13:49:56.161Z,100509.99
2019-02-08T13:52:24.075Z,100512.89
2019-02-08T13:54:52.002Z,100512.81
2019-02-08T13:57:23.869Z,100522.51
2019-02-08T13:59:55.101Z,100515.06
2019-02-08T14:02:26.400Z,100513.28
2019-02-08T14:04:54.274Z,100516.75
2019-02-08T14:07:22.006Z,100510.21
2019-02-08T14:09:51.540Z,100502.76
2019-02-08T14:12:19.284Z,100499.44
2019-02-08T14:14:47.037Z,100504.55
2019-02-08T14:17:14.817Z,100496.14
2019-02-08T14:19:42.858Z,100496.69
2019-02-08T14:22:12.080Z,100495.67
2019-02-08T14:24:54.621Z,100483.47
2019-02-08T14:27:34.402Z,100478.57
2019-02-08T14:30:30.915Z,100319.41
2019-02-08T14:32:59.266Z,100482.08
2019-02-08T14:35:27.278Z,100470.14
2019-02-08T14:38:10.728Z,100469.33
2019-02-08T14:40:47.891Z,100465.39
2019-02-08T14:43:15.651Z,100434.69
2019-02-08T14:45:43.593Z,100461.98
2019-02-08T14:48:14.502Z,100452.09
2019-02-08T14:50:42.265Z,100433.20
2019-02-08T14:53:10.207Z,100462.84
2019-02-08T14:55:37.967Z,100458.86
2019-02-08T14:58:07.987Z,100459.95
2019-02-08T15:00:35.897Z,100427.86
2019-02-08T15:03:04.099Z,100453.27
2019-02-08T15:05:31.861Z,100448.02
2019-02-08T15:07:59.671Z,100452.14
2019-02-08T15:10:28.924Z,100446.05
2019-02-08T15:12:56.663Z,100450.98
2019-02-08T15:15:24.405Z,100440.80
2019-02-08T15:17:52.190Z,100439.22
2019-02-08T15:20:21.185Z,100443.39
2019-02-08T15:22:48.985Z,100437.31
2019-02-08T15:25:16.920Z,100439.36
2019-02-08T15:27:44.708Z,100433.52
2019-02-08T15:30:13.556Z,100435.97
2019-02-08T15:32:41.345Z,100434.23
2019-02-08T15:35:09.262Z,100424.59
2019-02-08T15:37:37.076Z,100428.08
2019-02-08T15:40:05.764Z,100419.53
2019-02-08T15:42:33.607Z,100422.95
2019-02-08T15:45:01.424Z,100421.36
2019-02-08T15:47:29.318Z,100412.11
2019-02-08T15:49:57.257Z,100404.82
2019-02-08T15:52:25.159Z,100412.41
2019-02-08T15:54:52.918Z,100408.89
2019-02-08T15:57:21.174Z,100400.33
2019-02-08T15:59:48.932Z,100399.16
2019-02-08T16:02:16.763Z,100400.48
2019-02-08T16:04:44.522Z,100390.61
2019-02-08T16:07:12.265Z,100388.50
2019-02-08T16:09:40.358Z,100387.19
2019-02-08T16:12:08.107Z,100368.74
2019-02-08T16:14:35.836Z,100392.53
2019-02-08T16:17:03.543Z,100360.88
2019-02-08T16:19:31.330Z,100386.09
2019-02-08T16:21:59.350Z,100357.55
2019-02-08T16:24:27.128Z,100386.22
2019-02-08T16:26:54.876Z,100381.00
2019-02-08T16:29:22.675Z,100378.97
2019-02-08T16:31:50.416Z,100373.45
2019-02-08T16:34:18.146Z,100369.89
2019-02-08T16:36:45.954Z,100373.64
2019-02-08T16:39:13.720Z,100365.02
2019-02-08T16:41:41.422Z,100359.83
2019-02-08T16:44:09.131Z,100356.99
2019-02-08T16:46:36.866Z,100345.65
2019-02-08T16:49:04.607Z,100350.73
2019-02-08T16:51:32.323Z,100342.37
2019-02-08T16:54:00.030Z,100338.65
2019-02-08T16:56:27.753Z,100330.69
2019-02-08T16:58:56.288Z,100330.25
2019-02-08T17:01:24.058Z,100317.81
2019-02-08T17:03:51.846Z,100308.53
2019-02-08T17:06:19.599Z,100314.38
2019-02-08T17:08:47.466Z,100312.84
2019-02-08T17:11:15.285Z,100314.55
2019-02-08T17:13:43.150Z,100309.27
2019-02-08T17:16:10.922Z,100312.75
2019-02-08T17:18:39.085Z,100308.37
2019-02-08T17:21:06.985Z,100299.83
2019-02-08T17:23:34.734Z,100305.78
2019-02-08T17:26:02.503Z,100299.38
2019-02-08T17:28:30.743Z,100301.25
2019-02-08T17:30:58.454Z,100300.00
2019-02-08T17:33:26.263Z,100296.78
2019-02-08T17:35:53.998Z,100289.17
2019-02-08T17:38:21.724Z,100291.65
2019-02-08T17:40:49.452Z,100291.34
2019-02-08T17:43:17.455Z,100279.30
2019-02-08T17:45:45.231Z,100282.28
2019-02-08T17:48:13.746Z,100269.70
2019-02-08T17:50:41.555Z,100262.26
2019-02-08T17:53:09.587Z,100246.63
2019-02-08T17:55:37.314Z,100258.85
2019-02-08T17:58:05.252Z,100245.27
2019-02-08T18:00:42.935Z,100228.20
2019-02-08T18:03:10.752Z,100244.07
2019-02-08T18:05:38.545Z,100230.69
2019-02-08T18:08:06.725Z,100240.20
2019-02-08T18:16:19.837Z,100228.89
2019-02-08T18:18:48.810Z,100179.61
2019-02-08T18:21:16.661Z,100207.05
2019-02-08T18:23:44.497Z,100216.46
2019-02-08T18:26:12.312Z,100207.12
2019-02-08T18:28:40.333Z,100209.45
2019-02-08T18:31:08.386Z,100200.09
2019-02-08T18:33:36.228Z,100199.98
2019-02-08T18:36:04.241Z,100203.80
2019-02-08T18:38:32.075Z,100200.09
2019-02-08T18:40:59.996Z,100202.31
2019-02-08T18:43:27.762Z,100171.87
2019-02-08T18:45:55.541Z,100197.30
2019-02-08T18:48:23.304Z,100182.78
2019-02-08T18:50:51.994Z,100180.25
2019-02-08T18:53:20.166Z,100173.75
2019-02-08T18:55:48.106Z,100170.38
2019-02-08T18:58:19.595Z,100170.34
2019-02-08T19:00:48.061Z,100167.48
2019-02-08T19:03:16.069Z,100153.77
2019-02-08T19:05:43.871Z,100146.38
2019-02-08T19:08:11.923Z,100145.41
2019-02-08T19:10:39.697Z,100146.92
2019-02-08T19:13:07.493Z,100144.22
2019-02-08T19:15:35.243Z,100132.09
2019-02-08T19:18:03.015Z,100147.59
2019-02-08T19:20:30.770Z,100140.20
2019-02-08T19:22:58.820Z,100136.47
2019-02-08T19:25:27.745Z,100128.08
2019-02-08T19:27:55.531Z,100114.81
2019-02-08T19:30:24.279Z,100096.15
2019-02-08T19:32:52.028Z,100113.45
2019-02-08T19:35:19.849Z,100115.21
2019-02-08T19:37:47.581Z,100093.02
2019-02-08T19:40:16.725Z,100081.98
2019-02-08T19:42:44.488Z,100096.82
2019-02-08T19:45:12.722Z,100099.25
2019-02-08T19:47:40.478Z,100088.80
2019-02-08T19:50:09.333Z,100088.37
2019-02-08T19:52:37.080Z,100084.11
2019-02-08T19:55:06.267Z,100072.68
2019-02-08T19:57:34.012Z,100078.13
2019-02-08T20:00:01.757Z,100061.61
2019-02-08T20:02:29.577Z,100063.66
2019-02-08T20:04:57.388Z,100057.36
2019-02-08T20:07:25.137Z,100060.83
2019-02-08T20:09:52.967Z,100053.56
2019-02-08T20:12:21.157Z,100054.99
2019-02-08T20:14:48.909Z,100045.90
2019-02-08T20:17:16.663Z,100045.84
2019-02-08T20:19:44.418Z,100036.55
2019-02-08T20:22:12.286Z,100031.50
2019-02-08T20:24:40.056Z,100023.99
2019-02-08T20:27:07.868Z,100025.97
2019-02-08T20:29:35.634Z,100016.33
2019-02-08T20:32:03.432Z,100019.34
2019-02-08T20:34:31.324Z,100015.84
2019-02-08T20:36:59.069Z,100017.17
2019-02-08T20:39:26.820Z,100004.62
2019-02-08T20:41:54.598Z,100000.26
2019-02-08T20:44:22.599Z,100006.52
2019-02-08T20:46:50.420Z,100001.42
2019-02-08T20:49:18.208Z,100007.06
2019-02-08T20:51:46.335Z,99993.87
2019-02-08T20:54:14.133Z,99992.54
2019-02-08T20:56:41.962Z,99992.84
2019-02-08T20:59:09.750Z,99988.42
2019-02-08T21:01:37.504Z,99981.08
2019-02-08T21:04:05.548Z,99991.17
2019-02-08T21:06:33.411Z,99960.25
2019-02-08T21:09:01.332Z,99984.16
2019-02-08T21:11:29.136Z,99974.34
2019-02-08T21:13:56.870Z,99969.87
2019-02-08T21:16:24.606Z,99969.55
2019-02-08T21:18:52.348Z,99956.17
2019-02-08T21:21:20.147Z,99957.30
2019-02-08T21:23:47.952Z,99955.27
2019-02-08T21:26:15.757Z,99964.41
2019-02-08T21:28:43.534Z,99951.41
2019-02-08T21:31:12.390Z,99950.25
2019-02-08T21:33:40.231Z,99952.38
2019-02-08T21:36:08.072Z,99954.27
2019-02-08T21:38:35.816Z,99940.63
2019-02-08T21:41:03.571Z,99936.98
2019-02-08T21:43:31.338Z,99931.00
2019-02-08T21:45:59.061Z,99928.62
2019-02-08T21:48:26.909Z,99933.70
2019-02-08T21:50:55.148Z,99926.28
2019-02-08T21:53:22.909Z,99924.16
2019-02-08T21:55:50.645Z,99914.53
2019-02-08T21:58:18.422Z,99910.16
2019-02-08T22:00:46.156Z,99899.31
2019-02-08T22:03:13.986Z,99882.20
2019-02-08T22:05:43.436Z,99902.39
2019-02-08T22:08:11.196Z,99902.27
2019-02-08T22:10:39.001Z,99890.23
2019-02-08T22:13:06.845Z,99898.48
2019-02-08T22:15:35.017Z,99881.27
2019-02-08T22:18:02.777Z,99887.28
2019-02-08T22:20:30.586Z,99838.02
2019-02-08T22:22:58.396Z,99879.33
2019-02-08T22:25:26.284Z,99875.05
2019-02-08T22:27:54.156Z,99872.33
2019-02-08T22:30:22.328Z,99868.13
2019-02-08T22:32:50.693Z,99866.81
2019-02-08T22:35:19.575Z,99867.16
2019-02-08T22:37:47.461Z,99848.18
2019-02-08T22:40:16.148Z,99839.45
2019-02-08T22:42:43.904Z,99845.55
2019-02-08T22:45:15.958Z,99842.74
2019-02-08T22:47:43.712Z,99839.61
2019-02-08T22:50:11.804Z,99825.17
2019-02-08T22:52:39.591Z,99818.78
2019-02-08T22:55:08.698Z,99823.02
2019-02-08T22:57:36.441Z,99822.08
2019-02-08T23:00:05.680Z,99822.59
2019-02-08T23:02:35.013Z,99807.28
2019-02-08T23:05:02.748Z,99811.19
2019-02-08T23:07:30.488Z,99807.02
2019-02-08T23:09:58.261Z,99812.01
2019-02-08T23:12:26.393Z,99819.11
2019-02-08T23:14:54.140Z,99811.83
2019-02-08T23:17:21.939Z,99813.24
2019-02-08T23:19:49.748Z,99808.45
2019-02-08T23:22:17.495Z,99787.33
2019-02-08T23:24:45.277Z,99798.13
2019-02-08T23:27:13.463Z,99796.52
2019-02-08T23:29:41.200Z,99796.59
2019-02-08T23:32:08.972Z,99794.11
2019-02-08T23:34:36.795Z,99794.15
2019-02-08T23:37:04.649Z,99785.77
2019-02-08T23:39:32.419Z,99789.09
2019-02-08T23:42:00.475Z,99779.94
2019-02-08T23:44:28.409Z,99776.03
2019-02-08T23:46:56.289Z,99776.03
2019-02-08T23:49:24.767Z,99765.53
2019-02-08T23:51:52.615Z,99740.64
2019-02-08T23:54:20.470Z,99759.38
2019-02-08T23:56:48.243Z,99759.98
2019-02-08T23:59:15.975Z,99761.33
